Time;durP1;ratioP1;P1;durP2;ratioP2;P2;SDS_P1;SDS_P2;PMS_P1;PMS_P2;Temp;Humidity;BMP_temperature;BMP_pressure;BME280_temperature;BME280_humidity;BME280_pressure;Samples;Min_cycle;Max_cycle;Signal;HPM_P1;HPM_P2
2023/07/19 00:01:42;;;;;;;6.07;2.55;;;17.60;99.90;;;;;;4976819;28;20043;-66
2023/07/19 00:04:07;;;;;;;7.78;2.67;;;17.60;99.90;;;;;;4974259;28;20491;-66
2023/07/19 00:06:35;;;;;;;3.88;2.65;;;17.50;99.90;;;;;;4976305;28;20418;-66
2023/07/19 00:09:00;;;;;;;6.38;2.92;;;17.60;99.90;;;;;;4976129;28;20039;-66
2023/07/19 00:11:26;;;;;;;4.03;3.28;;;17.50;99.90;;;;;;4976111;28;20081;-66
2023/07/19 00:13:51;;;;;;;4.80;2.90;;;17.50;99.90;;;;;;4975682;28;20093;-65
2023/07/19 00:16:17;;;;;;;3.88;2.40;;;17.60;99.90;;;;;;4975676;28;20479;-66
2023/07/19 00:18:42;;;;;;;5.10;3.17;;;17.50;99.90;;;;;;4975964;28;20071;-65
2023/07/19 00:21:08;;;;;;;5.90;3.25;;;17.50;99.90;;;;;;4975742;28;20039;-66
2023/07/19 00:23:34;;;;;;;4.90;3.50;;;17.50;99.90;;;;;;4975319;28;20053;-65
2023/07/19 00:25:59;;;;;;;7.05;3.10;;;17.60;99.90;;;;;;4975379;28;20041;-66
2023/07/19 00:28:25;;;;;;;4.50;3.40;;;17.50;99.90;;;;;;4975677;28;20605;-66
2023/07/19 00:30:59;;;;;;;5.88;3.72;;;17.50;99.90;;;;;;4975601;28;20094;-65
2023/07/19 00:33:25;;;;;;;4.45;3.60;;;17.40;99.90;;;;;;4975439;28;20039;-65
2023/07/19 00:35:52;;;;;;;4.85;3.47;;;17.50;99.90;;;;;;4975416;28;20051;-66
2023/07/19 00:38:17;;;;;;;7.07;3.50;;;17.40;99.90;;;;;;4974097;28;20545;-66
2023/07/19 00:40:43;;;;;;;9.68;4.50;;;17.40;99.90;;;;;;4975544;28;20046;-66
2023/07/19 00:43:11;;;;;;;5.28;3.78;;;17.50;99.90;;;;;;4974575;28;20073;-65
2023/07/19 00:45:51;;;;;;;7.03;4.13;;;17.50;99.90;;;;;;4975494;28;20125;-66
2023/07/19 00:48:17;;;;;;;5.60;3.72;;;17.40;99.90;;;;;;4975254;28;20097;-66
2023/07/19 00:50:43;;;;;;;5.20;4.05;;;17.40;99.90;;;;;;4975217;28;20078;-66
2023/07/19 00:53:11;;;;;;;8.02;4.38;;;17.50;99.90;;;;;;4975016;28;20679;-66
2023/07/19 00:55:38;;;;;;;4.90;3.83;;;17.40;99.90;;;;;;4974877;28;20043;-65
2023/07/19 00:58:05;;;;;;;6.78;4.22;;;17.40;99.90;;;;;;4974920;28;20641;-65
2023/07/19 01:00:31;;;;;;;6.85;3.75;;;17.40;99.90;;;;;;4975307;28;20106;-66
2023/07/19 01:02:57;;;;;;;6.18;3.63;;;17.40;99.90;;;;;;4975032;28;20494;-65
2023/07/19 01:05:23;;;;;;;4.72;3.80;;;17.50;99.90;;;;;;4975012;28;20038;-66
2023/07/19 01:07:48;;;;;;;6.85;4.90;;;17.40;99.90;;;;;;4974810;28;20093;-66
2023/07/19 01:10:14;;;;;;;7.38;3.40;;;17.40;99.90;;;;;;4974893;28;20071;-66
2023/07/19 01:12:40;;;;;;;8.35;4.28;;;17.40;99.90;;;;;;4974737;28;20035;-66
2023/07/19 01:15:09;;;;;;;7.05;4.30;;;17.40;99.90;;;;;;4975052;28;20422;-66
2023/07/19 01:17:36;;;;;;;7.68;3.80;;;17.40;99.90;;;;;;4974672;28;20043;-66
2023/07/19 01:20:02;;;;;;;7.30;3.95;;;17.50;99.90;;;;;;4974902;28;20043;-66
2023/07/19 01:22:32;;;;;;;7.55;4.55;;;17.40;99.90;;;;;;4974444;28;20057;-66
2023/07/19 01:25:02;;;;;;;5.47;4.20;;;17.40;99.90;;;;;;4974615;28;20039;-66
2023/07/19 01:27:28;;;;;;;4.75;3.85;;;17.40;99.90;;;;;;4974444;28;20042;-65
2023/07/19 01:29:53;;;;;;;6.53;4.03;;;17.40;99.90;;;;;;4974755;28;20037;-65
2023/07/19 01:32:19;;;;;;;7.38;4.00;;;17.40;99.90;;;;;;4974431;28;20436;-66
2023/07/19 01:34:45;;;;;;;8.23;3.92;;;17.30;99.90;;;;;;4974512;28;20070;-65
2023/07/19 01:37:11;;;;;;;6.20;4.85;;;17.40;99.90;;;;;;4974163;28;20413;-66
2023/07/19 01:39:36;;;;;;;6.55;4.80;;;17.30;99.90;;;;;;4974406;28;20588;-66
2023/07/19 01:42:02;;;;;;;7.40;4.45;;;17.30;99.90;;;;;;4974011;28;20105;-66
2023/07/19 01:44:27;;;;;;;6.00;4.45;;;17.20;99.90;;;;;;4974211;28;20043;-66
2023/07/19 01:46:53;;;;;;;5.40;4.07;;;17.20;99.90;;;;;;4974037;28;20042;-65
2023/07/19 01:49:18;;;;;;;6.10;3.42;;;17.30;99.90;;;;;;4974277;28;20417;-66
2023/07/19 01:51:44;;;;;;;6.60;3.63;;;17.20;99.90;;;;;;4974186;28;20042;-65
2023/07/19 01:54:10;;;;;;;6.10;3.97;;;17.20;99.90;;;;;;4973655;28;20081;-66
2023/07/19 01:56:35;;;;;;;8.00;4.55;;;17.30;99.90;;;;;;4973571;28;20082;-65
2023/07/19 01:59:01;;;;;;;9.20;4.50;;;17.20;99.90;;;;;;4974132;28;20046;-65
2023/07/19 02:01:26;;;;;;;7.55;4.60;;;17.20;99.90;;;;;;4973639;28;20118;-65
2023/07/19 02:03:52;;;;;;;6.43;4.47;;;17.10;99.90;;;;;;4973877;28;20114;-65
2023/07/19 02:06:17;;;;;;;7.90;5.32;;;17.10;99.90;;;;;;4973642;28;20566;-65
2023/07/19 02:08:43;;;;;;;7.50;4.72;;;17.10;99.90;;;;;;4973773;28;20037;-66
2023/07/19 02:11:09;;;;;;;7.72;4.28;;;17.00;99.90;;;;;;4973813;28;20122;-66
2023/07/19 02:13:34;;;;;;;7.55;4.57;;;17.20;99.90;;;;;;4972346;28;20105;-66
2023/07/19 02:16:00;;;;;;;8.10;4.55;;;17.10;99.90;;;;;;4973533;28;20060;-65
2023/07/19 02:18:25;;;;;;;6.75;4.70;;;17.10;99.90;;;;;;4973743;28;20043;-66
2023/07/19 02:20:53;;;;;;;6.40;4.82;;;17.10;99.90;;;;;;4973508;28;20042;-66
2023/07/19 02:23:19;;;;;;;8.18;5.03;;;17.10;99.90;;;;;;4973133;28;20051;-66
2023/07/19 02:25:48;;;;;;;7.50;5.00;;;17.20;99.90;;;;;;4973628;28;20105;-66
2023/07/19 02:28:14;;;;;;;9.15;4.35;;;17.10;99.90;;;;;;4973573;28;20038;-66
2023/07/19 02:30:44;;;;;;;5.78;4.53;;;17.20;99.90;;;;;;4973559;28;20046;-66
2023/07/19 02:33:13;;;;;;;6.40;4.90;;;17.20;99.90;;;;;;4973303;28;20043;-66
2023/07/19 02:35:40;;;;;;;7.65;4.93;;;17.10;99.90;;;;;;4973237;28;20093;-66
2023/07/19 02:38:06;;;;;;;9.10;4.93;;;17.10;99.90;;;;;;4973456;28;20085;-66
2023/07/19 02:40:32;;;;;;;7.95;5.05;;;17.10;99.90;;;;;;4973332;28;20506;-66
2023/07/19 02:42:57;;;;;;;8.63;4.90;;;17.10;99.90;;;;;;4971792;28;20047;-65
2023/07/19 02:45:24;;;;;;;6.95;4.50;;;17.00;99.90;;;;;;4972279;28;20046;-66
2023/07/19 02:47:50;;;;;;;6.55;4.80;;;17.10;99.90;;;;;;4972992;28;20050;-66
2023/07/19 02:50:19;;;;;;;10.23;5.47;;;17.10;99.90;;;;;;4973167;28;20038;-65
2023/07/19 02:52:45;;;;;;;5.28;4.75;;;17.10;99.90;;;;;;4973309;28;20181;-66
2023/07/19 02:55:10;;;;;;;6.78;4.80;;;17.10;99.90;;;;;;4973100;28;20084;-65
2023/07/19 02:57:36;;;;;;;5.53;5.03;;;16.90;99.90;;;;;;4972451;28;20129;-66
2023/07/19 03:00:03;;;;;;;10.10;5.72;;;16.80;99.90;;;;;;4973105;28;20058;-65
2023/07/19 03:02:28;;;;;;;6.15;5.03;;;17.00;99.90;;;;;;4973671;28;20442;-66
2023/07/19 03:04:55;;;;;;;7.85;5.05;;;16.90;99.90;;;;;;4991189;28;20045;-66
2023/07/19 03:07:21;;;;;;;7.40;5.18;;;16.90;99.90;;;;;;4984966;28;20097;-65
2023/07/19 03:09:47;;;;;;;5.30;4.60;;;16.70;99.90;;;;;;4988124;28;20059;-66
2023/07/19 03:12:13;;;;;;;7.60;5.25;;;16.80;99.90;;;;;;4986241;28;20149;-65
2023/07/19 03:14:39;;;;;;;8.88;4.95;;;16.90;99.90;;;;;;4992283;28;20077;-66
2023/07/19 03:17:04;;;;;;;6.68;4.88;;;16.70;99.90;;;;;;4992099;28;20042;-66
2023/07/19 03:19:30;;;;;;;7.22;5.22;;;16.70;99.90;;;;;;4992219;28;20042;-66
2023/07/19 03:21:55;;;;;;;6.00;4.53;;;16.80;99.90;;;;;;4992174;28;20062;-66
2023/07/19 03:24:21;;;;;;;8.48;5.22;;;16.80;99.90;;;;;;4992370;28;20549;-66
2023/07/19 03:26:47;;;;;;;7.32;4.60;;;16.60;99.90;;;;;;4992061;28;20182;-66
2023/07/19 03:29:13;;;;;;;7.38;4.68;;;16.80;99.90;;;;;;4992374;28;20077;-66
2023/07/19 03:31:38;;;;;;;5.88;4.78;;;16.70;99.90;;;;;;4992253;28;20240;-66
2023/07/19 03:34:04;;;;;;;6.07;4.55;;;16.70;99.90;;;;;;4991818;28;20038;-66
2023/07/19 03:36:29;;;;;;;8.10;4.57;;;16.60;99.90;;;;;;4991937;28;20041;-66
2023/07/19 03:38:55;;;;;;;7.55;5.03;;;16.60;99.90;;;;;;4990793;28;20038;-66
2023/07/19 03:41:21;;;;;;;7.45;4.88;;;16.60;99.90;;;;;;4992335;28;20157;-66
2023/07/19 03:43:46;;;;;;;7.45;4.47;;;16.70;99.90;;;;;;4992095;28;20065;-66
2023/07/19 03:46:12;;;;;;;8.15;4.70;;;16.60;99.90;;;;;;4992074;28;20133;-66
2023/07/19 03:48:37;;;;;;;6.53;4.50;;;16.60;99.90;;;;;;4992047;28;20061;-65
2023/07/19 03:51:03;;;;;;;8.85;5.10;;;16.60;99.90;;;;;;4992135;28;20030;-66
2023/07/19 03:53:29;;;;;;;9.27;4.45;;;16.70;99.90;;;;;;4992005;28;20422;-66
2023/07/19 03:55:55;;;;;;;9.15;5.78;;;16.50;99.90;;;;;;4991789;28;20038;-65
2023/07/19 03:58:25;;;;;;;8.40;5.25;;;16.60;99.90;;;;;;4991990;28;20038;-66
2023/07/19 04:00:57;;;;;;;11.75;5.60;;;16.60;99.90;;;;;;4991873;28;20122;-66
2023/07/19 04:03:24;;;;;;;6.32;5.40;;;16.60;99.90;;;;;;4991967;28;20125;-66
2023/07/19 04:05:51;;;;;;;7.07;5.72;;;16.50;99.90;;;;;;4991913;28;20441;-66
2023/07/19 04:08:17;;;;;;;6.13;5.20;;;16.70;99.90;;;;;;4991763;28;20042;-66
2023/07/19 04:10:43;;;;;;;8.80;5.65;;;16.50;99.90;;;;;;4991984;28;20391;-66
2023/07/19 04:13:12;;;;;;;8.20;4.95;;;16.60;99.90;;;;;;4991787;28;20053;-66
2023/07/19 04:15:38;;;;;;;8.68;5.40;;;16.50;99.90;;;;;;4991215;28;20096;-66
2023/07/19 04:18:04;;;;;;;6.88;5.20;;;16.60;99.90;;;;;;4992633;28;20039;-66
2023/07/19 04:20:30;;;;;;;8.02;5.20;;;16.50;99.90;;;;;;4995293;28;20416;-66
2023/07/19 04:22:56;;;;;;;10.38;5.60;;;16.50;99.90;;;;;;4993725;28;20050;-66
2023/07/19 04:25:24;;;;;;;8.48;5.32;;;16.60;99.90;;;;;;4995167;28;20034;-66
2023/07/19 04:27:50;;;;;;;7.20;5.18;;;16.50;99.90;;;;;;4994878;28;20452;-66
2023/07/19 04:30:16;;;;;;;7.78;5.93;;;16.50;99.90;;;;;;4995087;28;20039;-66
2023/07/19 04:32:42;;;;;;;13.43;6.07;;;16.50;99.90;;;;;;4995093;28;20045;-65
2023/07/19 04:35:08;;;;;;;7.13;5.93;;;16.70;99.90;;;;;;4995180;28;20125;-66
2023/07/19 04:37:34;;;;;;;9.55;5.38;;;16.60;99.90;;;;;;4994844;28;20049;-66
2023/07/19 04:39:59;;;;;;;11.98;6.07;;;16.70;99.90;;;;;;4995107;28;20042;-66
2023/07/19 04:42:26;;;;;;;8.43;6.00;;;16.70;99.90;;;;;;4994754;28;20093;-66
2023/07/19 04:44:52;;;;;;;13.07;5.97;;;16.70;99.90;;;;;;4994811;28;20406;-66
2023/07/19 04:47:18;;;;;;;11.50;6.50;;;16.70;99.90;;;;;;4994842;28;20048;-66
2023/07/19 04:49:44;;;;;;;11.30;6.20;;;16.50;99.90;;;;;;4994863;28;20042;-66
2023/07/19 04:52:09;;;;;;;11.60;6.72;;;16.60;99.90;;;;;;4994343;28;20038;-66
2023/07/19 04:54:35;;;;;;;10.68;6.63;;;16.70;99.90;;;;;;4994653;28;20042;-66
2023/07/19 04:57:00;;;;;;;9.80;6.43;;;16.70;99.90;;;;;;4994330;28;20042;-66
2023/07/19 04:59:26;;;;;;;11.80;6.80;;;16.60;99.90;;;;;;4994539;28;20038;-66
2023/07/19 05:01:52;;;;;;;9.60;6.75;;;16.70;99.90;;;;;;4994730;28;20042;-66
2023/07/19 05:04:18;;;;;;;7.07;5.93;;;16.60;99.90;;;;;;4994437;28;20411;-66
2023/07/19 05:06:44;;;;;;;13.50;7.10;;;16.70;99.90;;;;;;4994310;28;20433;-67
2023/07/19 05:09:10;;;;;;;8.68;6.35;;;16.70;99.90;;;;;;4994557;28;20466;-66
2023/07/19 05:11:36;;;;;;;10.10;7.15;;;16.70;99.90;;;;;;4994474;28;20038;-66
2023/07/19 05:14:02;;;;;;;12.13;6.60;;;16.70;99.90;;;;;;4994262;28;20057;-66
2023/07/19 05:16:27;;;;;;;10.25;6.82;;;16.80;99.90;;;;;;4994011;28;20038;-66
2023/07/19 05:18:53;;;;;;;9.10;6.38;;;16.80;99.90;;;;;;4994359;28;20042;-66
2023/07/19 05:21:18;;;;;;;10.32;6.68;;;16.80;99.90;;;;;;4994329;28;20042;-66
2023/07/19 05:23:44;;;;;;;12.30;5.95;;;16.70;99.90;;;;;;4993973;28;20053;-66
2023/07/19 05:26:10;;;;;;;13.00;6.15;;;16.70;99.90;;;;;;4993732;28;20045;-66
2023/07/19 05:28:36;;;;;;;10.07;6.03;;;16.70;99.90;;;;;;4994014;28;20026;-66
2023/07/19 05:31:05;;;;;;;10.77;6.75;;;16.80;99.90;;;;;;4992899;28;20462;-66
2023/07/19 05:33:32;;;;;;;8.93;6.00;;;16.70;99.90;;;;;;4994021;28;20049;-66
2023/07/19 05:35:58;;;;;;;9.57;6.15;;;16.90;99.90;;;;;;5008638;28;20045;-66
2023/07/19 05:38:24;;;;;;;10.80;5.90;;;16.70;99.90;;;;;;4994014;28;20042;-66
2023/07/19 05:40:50;;;;;;;10.20;6.80;;;16.80;99.90;;;;;;4993874;28;20050;-66
2023/07/19 05:43:15;;;;;;;10.55;6.25;;;16.90;99.90;;;;;;4993588;28;20053;-66
2023/07/19 05:45:41;;;;;;;11.23;6.18;;;16.80;99.90;;;;;;4993845;28;20046;-66
2023/07/19 05:48:06;;;;;;;8.68;5.50;;;16.90;99.90;;;;;;4993672;28;20475;-66
2023/07/19 05:50:32;;;;;;;9.85;6.55;;;16.90;99.90;;;;;;4993425;28;20042;-66
2023/07/19 05:52:57;;;;;;;8.63;5.53;;;16.90;99.90;;;;;;4993467;28;20042;-66
2023/07/19 05:55:24;;;;;;;6.95;4.85;;;16.90;99.90;;;;;;4993613;28;20038;-66
2023/07/19 05:57:50;;;;;;;10.25;5.57;;;16.90;99.90;;;;;;4991880;28;20046;-66
2023/07/19 06:00:28;;;;;;;7.13;5.57;;;16.90;99.90;;;;;;4993586;28;20117;-66
2023/07/19 06:02:55;;;;;;;10.75;5.22;;;16.80;99.90;;;;;;4993001;28;20414;-66
2023/07/19 06:05:23;;;;;;;9.70;6.15;;;16.80;99.90;;;;;;4993468;28;20579;-67
2023/07/19 06:07:48;;;;;;;11.65;5.60;;;16.90;99.90;;;;;;5008303;28;20042;-66
2023/07/19 06:10:15;;;;;;;7.68;5.15;;;17.00;99.90;;;;;;4993298;28;20034;-66
2023/07/19 06:12:43;;;;;;;7.75;4.80;;;16.80;99.90;;;;;;4993413;28;20046;-66
2023/07/19 06:15:09;;;;;;;7.30;4.95;;;17.00;99.90;;;;;;4993020;28;20125;-66
2023/07/19 06:17:34;;;;;;;8.07;4.93;;;16.90;99.90;;;;;;4993021;28;20474;-66
2023/07/19 06:20:00;;;;;;;10.55;4.70;;;16.80;99.90;;;;;;4993058;28;20042;-66
2023/07/19 06:22:25;;;;;;;8.43;5.25;;;17.00;99.90;;;;;;4992736;28;20050;-67
2023/07/19 06:24:51;;;;;;;8.57;4.80;;;17.00;99.90;;;;;;4992990;28;20097;-66
2023/07/19 06:27:17;;;;;;;7.20;4.70;;;17.00;99.90;;;;;;4992911;28;20038;-66
2023/07/19 06:29:43;;;;;;;5.32;4.45;;;17.00;99.90;;;;;;4993049;28;20042;-66
2023/07/19 06:32:09;;;;;;;7.85;4.43;;;17.00;99.90;;;;;;4993022;28;20043;-66
2023/07/19 06:34:34;;;;;;;6.95;4.47;;;16.90;99.90;;;;;;4992800;28;20100;-67
2023/07/19 06:37:01;;;;;;;8.68;4.18;;;17.00;99.90;;;;;;4992603;28;20049;-66
2023/07/19 06:39:28;;;;;;;8.20;4.15;;;17.00;99.90;;;;;;4992683;28;20065;-67
2023/07/19 06:41:53;;;;;;;11.85;4.00;;;17.10;99.90;;;;;;4992407;28;20151;-66
2023/07/19 06:44:19;;;;;;;8.93;4.47;;;17.00;99.90;;;;;;4992549;28;20034;-67
2023/07/19 06:46:44;;;;;;;7.28;3.88;;;17.00;99.90;;;;;;4992184;28;20069;-66
2023/07/19 06:49:10;;;;;;;6.97;3.70;;;16.90;99.90;;;;;;4992674;28;20042;-67
2023/07/19 06:51:36;;;;;;;7.85;3.92;;;17.00;99.90;;;;;;4992753;28;20042;-66
2023/07/19 06:54:01;;;;;;;6.70;2.97;;;17.00;99.90;;;;;;4992405;28;20038;-66
2023/07/19 06:56:27;;;;;;;6.28;3.35;;;16.90;99.90;;;;;;4992235;28;20104;-67
2023/07/19 06:58:52;;;;;;;4.57;2.53;;;16.90;99.90;;;;;;4992732;28;20030;-67
2023/07/19 07:01:18;;;;;;;7.38;2.28;;;16.90;99.90;;;;;;4992730;28;20038;-66
2023/07/19 07:03:44;;;;;;;4.97;2.30;;;16.90;99.90;;;;;;4992446;28;20434;-67
2023/07/19 07:06:09;;;;;;;5.85;2.38;;;17.00;99.90;;;;;;4992269;28;20039;-67
2023/07/19 07:08:35;;;;;;;5.15;1.92;;;17.10;99.90;;;;;;4992361;28;20031;-66
2023/07/19 07:11:01;;;;;;;3.78;1.83;;;17.10;99.90;;;;;;4992671;28;20516;-67
2023/07/19 07:13:27;;;;;;;3.28;1.73;;;17.20;99.90;;;;;;4992553;28;20042;-67
2023/07/19 07:15:53;;;;;;;3.67;1.60;;;17.20;99.90;;;;;;4988878;28;20104;-67
2023/07/19 07:18:18;;;;;;;4.60;1.73;;;17.30;99.90;;;;;;4991962;28;20494;-67
2023/07/19 07:20:45;;;;;;;7.28;2.25;;;17.40;99.90;;;;;;4992351;28;20550;-66
2023/07/19 07:23:10;;;;;;;4.72;1.77;;;17.40;99.90;;;;;;4991923;28;20050;-67
2023/07/19 07:25:36;;;;;;;2.50;1.30;;;17.50;99.90;;;;;;4992441;28;20115;-66
2023/07/19 07:28:02;;;;;;;4.65;1.67;;;17.60;99.90;;;;;;4992237;28;20433;-67
2023/07/19 07:30:27;;;;;;;4.25;1.50;;;17.50;99.90;;;;;;4992332;28;20518;-67
2023/07/19 07:32:53;;;;;;;5.47;1.70;;;17.60;99.90;;;;;;4992148;28;20438;-67
2023/07/19 07:35:19;;;;;;;4.60;1.50;;;17.60;99.90;;;;;;4991784;28;20113;-67
2023/07/19 07:37:44;;;;;;;6.13;1.25;;;17.80;99.90;;;;;;4991802;28;20046;-67
2023/07/19 07:40:11;;;;;;;3.13;1.52;;;17.80;99.90;;;;;;4992168;28;20421;-67
2023/07/19 07:42:40;;;;;;;3.63;1.50;;;17.80;99.90;;;;;;4991989;28;20042;-67
2023/07/19 07:45:06;;;;;;;4.72;1.60;;;18.00;99.90;;;;;;4992231;28;20043;-67
2023/07/19 07:47:32;;;;;;;3.40;1.60;;;18.40;99.90;;;;;;4991741;28;20121;-67
2023/07/19 07:49:57;;;;;;;5.88;1.80;;;18.50;99.90;;;;;;4992016;28;20109;-67
2023/07/19 07:52:24;;;;;;;2.38;1.40;;;18.50;99.90;;;;;;4991893;28;20061;-67
2023/07/19 07:54:51;;;;;;;2.92;1.60;;;18.80;99.90;;;;;;4995808;28;20042;-67
2023/07/19 07:57:17;;;;;;;6.57;1.42;;;19.00;99.90;;;;;;4995632;28;20069;-67
2023/07/19 07:59:45;;;;;;;4.47;1.55;;;19.00;99.90;;;;;;4995353;28;20080;-67
2023/07/19 08:02:11;;;;;;;4.43;1.42;;;19.10;99.90;;;;;;4993463;28;20057;-67
2023/07/19 08:04:37;;;;;;;2.10;1.13;;;19.10;99.90;;;;;;4995228;28;20034;-67
2023/07/19 08:07:02;;;;;;;4.05;1.48;;;19.00;99.90;;;;;;4994838;28;20043;-67
2023/07/19 08:09:28;;;;;;;5.32;1.13;;;19.00;99.90;;;;;;4994836;28;20425;-67
2023/07/19 08:11:54;;;;;;;1.88;1.60;;;18.90;99.90;;;;;;4995139;28;20041;-67
2023/07/19 08:14:19;;;;;;;4.18;1.40;;;19.10;99.90;;;;;;4994941;28;20590;-67
2023/07/19 08:16:47;;;;;;;3.80;1.13;;;19.10;99.90;;;;;;4994738;28;20042;-67
2023/07/19 08:19:13;;;;;;;3.22;1.40;;;19.00;99.90;;;;;;4990662;28;20101;-67
2023/07/19 08:21:38;;;;;;;3.03;1.23;;;19.00;99.90;;;;;;4994839;28;20038;-67
2023/07/19 08:24:04;;;;;;;3.20;1.20;;;19.10;99.90;;;;;;4994626;28;20465;-67
2023/07/19 08:26:30;;;;;;;3.88;1.08;;;19.30;99.90;;;;;;4994518;28;20038;-67
2023/07/19 08:28:55;;;;;;;3.35;1.10;;;19.30;99.90;;;;;;4994968;28;20052;-67
2023/07/19 08:31:23;;;;;;;8.15;1.90;;;19.30;99.90;;;;;;4995375;28;20085;-67
2023/07/19 08:33:49;;;;;;;3.88;1.20;;;19.20;99.90;;;;;;4995025;28;20450;-67
2023/07/19 08:36:14;;;;;;;4.88;1.30;;;19.20;99.90;;;;;;4993710;28;20042;-67
2023/07/19 08:38:40;;;;;;;2.38;1.13;;;19.10;99.90;;;;;;4993700;28;20054;-67
2023/07/19 08:41:06;;;;;;;3.92;1.70;;;19.10;99.90;;;;;;4994916;28;20533;-67
2023/07/19 08:43:35;;;;;;;3.30;1.13;;;19.10;99.90;;;;;;4994867;28;20078;-67
2023/07/19 08:46:02;;;;;;;4.13;1.15;;;19.10;99.90;;;;;;4994013;28;20088;-67
2023/07/19 08:48:29;;;;;;;3.45;1.00;;;19.10;99.90;;;;;;4994808;28;20643;-67
2023/07/19 08:50:56;;;;;;;3.70;1.40;;;19.00;99.90;;;;;;4994735;28;20065;-67
2023/07/19 08:53:23;;;;;;;3.03;1.05;;;19.00;99.90;;;;;;4993399;28;20057;-67
2023/07/19 08:55:50;;;;;;;3.53;1.13;;;19.10;99.90;;;;;;4994614;28;20089;-67
2023/07/19 08:58:17;;;;;;;2.55;0.90;;;19.60;99.90;;;;;;4993260;28;20399;-67
2023/07/19 09:00:45;;;;;;;3.95;1.10;;;20.20;99.90;;;;;;4993493;28;20433;-66
2023/07/19 09:03:11;;;;;;;4.22;1.38;;;20.70;99.90;;;;;;4994365;28;20057;-67
2023/07/19 09:05:38;;;;;;;2.60;1.20;;;21.30;99.90;;;;;;4994539;28;20414;-67
2023/07/19 09:08:04;;;;;;;3.92;1.45;;;21.80;99.90;;;;;;4993893;28;20034;-67
2023/07/19 09:10:30;;;;;;;2.80;1.00;;;22.00;99.90;;;;;;4994197;28;20042;-67
2023/07/19 09:12:56;;;;;;;3.30;1.00;;;22.20;99.90;;;;;;4993871;28;20038;-67
2023/07/19 09:15:22;;;;;;;2.38;1.17;;;22.30;99.90;;;;;;4993779;28;20164;-67
2023/07/19 09:17:49;;;;;;;3.15;0.93;;;22.60;99.90;;;;;;4994080;28;20125;-67
2023/07/19 09:20:19;;;;;;;3.05;1.20;;;22.70;99.90;;;;;;4994488;28;20074;-67
2023/07/19 09:22:45;;;;;;;3.30;0.95;;;22.90;99.90;;;;;;4994125;28;20120;-67
2023/07/19 09:25:11;;;;;;;3.92;1.08;;;22.70;99.90;;;;;;4994217;28;20078;-67
2023/07/19 09:27:41;;;;;;;3.60;0.93;;;22.80;99.90;;;;;;4993860;28;20038;-67
2023/07/19 09:30:11;;;;;;;2.90;0.80;;;22.80;99.90;;;;;;4992918;28;20136;-67
2023/07/19 09:32:38;;;;;;;3.33;1.15;;;23.10;99.90;;;;;;4993888;28;20410;-67
2023/07/19 09:35:05;;;;;;;3.10;1.05;;;23.20;99.90;;;;;;4994145;28;20038;-67
2023/07/19 09:37:31;;;;;;;1.98;0.90;;;23.30;99.90;;;;;;4992575;28;20093;-67
2023/07/19 09:39:59;;;;;;;2.75;0.85;;;23.10;99.90;;;;;;4993946;28;20042;-67
2023/07/19 09:42:25;;;;;;;2.17;0.88;;;22.90;99.90;;;;;;4993666;28;20583;-67
2023/07/19 09:44:52;;;;;;;4.43;1.13;;;23.20;99.90;;;;;;4993125;28;20081;-67
2023/07/19 09:47:18;;;;;;;4.20;1.25;;;23.00;99.90;;;;;;4993654;28;20039;-69
2023/07/19 09:49:44;;;;;;;3.47;0.98;;;22.60;99.90;;;;;;4993307;28;20118;-68
2023/07/19 09:52:16;;;;;;;1.77;0.80;;;22.20;99.90;;;;;;4993390;28;20070;-69
2023/07/19 09:54:43;;;;;;;3.35;1.60;;;21.80;99.90;;;;;;4992455;28;20125;-69
2023/07/19 09:57:09;;;;;;;2.17;1.00;;;21.50;99.90;;;;;;4993347;28;20046;-68
2023/07/19 09:59:43;;;;;;;3.60;1.20;;;21.50;99.90;;;;;;4993352;28;20038;-69
2023/07/19 10:02:10;;;;;;;4.13;1.00;;;21.70;99.90;;;;;;4993332;28;20052;-69
2023/07/19 10:04:40;;;;;;;2.88;1.00;;;22.10;99.90;;;;;;4993545;28;20130;-69
2023/07/19 10:07:18;;;;;;;3.15;1.02;;;22.20;99.90;;;;;;4991921;28;20085;-69
2023/07/19 10:09:45;;;;;;;2.83;1.27;;;22.50;99.90;;;;;;4993254;28;20034;-69
2023/07/19 10:12:17;;;;;;;5.65;1.30;;;22.50;99.90;;;;;;4993105;28;20561;-69
2023/07/19 10:15:01;;;;;;;2.88;1.25;;;22.50;99.90;;;;;;4993009;28;20063;-69
2023/07/19 10:17:29;;;;;;;1.85;1.05;;;22.50;99.90;;;;;;4990634;28;20030;-69
2023/07/19 10:20:13;;;;;;;3.08;0.90;;;22.00;99.90;;;;;;4975028;28;20035;-69
2023/07/19 10:22:58;;;;;;;2.65;1.60;;;22.00;99.90;;;;;;4992436;28;20046;-69
2023/07/19 10:25:25;;;;;;;1.98;1.30;;;21.60;99.90;;;;;;4992768;28;20034;-69
2023/07/19 10:28:09;;;;;;;2.42;1.40;;;21.40;99.90;;;;;;4992560;28;20477;-69
2023/07/19 10:30:46;;;;;;;4.38;1.38;;;21.10;99.90;;;;;;4992781;28;20050;-69
2023/07/19 10:33:13;;;;;;;3.92;1.27;;;20.90;99.90;;;;;;4991339;28;20049;-69
2023/07/19 10:35:40;;;;;;;4.13;1.50;;;20.80;99.90;;;;;;4992903;28;20038;-68
2023/07/19 10:38:12;;;;;;;2.55;1.02;;;20.80;99.90;;;;;;4992404;28;20042;-69
2023/07/19 10:40:38;;;;;;;3.80;0.98;;;21.00;99.90;;;;;;4992767;28;20042;-69
2023/07/19 10:43:03;;;;;;;3.35;1.20;;;21.10;99.90;;;;;;4991968;28;20046;-69
2023/07/19 10:45:29;;;;;;;4.43;1.17;;;21.10;99.90;;;;;;4992280;28;20038;-69
2023/07/19 10:47:59;;;;;;;2.78;1.13;;;21.10;99.90;;;;;;4992255;28;20041;-69
2023/07/19 10:50:24;;;;;;;2.30;1.17;;;20.80;99.90;;;;;;4992937;28;20502;-69
2023/07/19 10:52:51;;;;;;;4.32;1.38;;;20.60;99.90;;;;;;4989385;28;20042;-68
2023/07/19 10:55:16;;;;;;;4.35;1.15;;;20.40;99.90;;;;;;4986765;28;20038;-68
2023/07/19 10:57:42;;;;;;;2.22;1.60;;;20.20;99.90;;;;;;4989289;28;20061;-69
2023/07/19 11:00:14;;;;;;;3.05;1.48;;;20.10;99.90;;;;;;4992662;28;20046;-69
2023/07/19 11:02:40;;;;;;;3.95;1.50;;;20.20;99.90;;;;;;4992390;28;20081;-69
2023/07/19 11:05:07;;;;;;;4.65;1.50;;;20.50;99.90;;;;;;4992495;28;20038;-69
2023/07/19 11:07:33;;;;;;;2.28;1.00;;;20.60;99.90;;;;;;4992326;28;20045;-70
2023/07/19 11:09:59;;;;;;;3.28;1.30;;;20.90;99.90;;;;;;4992408;28;20046;-69
2023/07/19 11:12:25;;;;;;;2.58;1.02;;;20.80;99.90;;;;;;4985052;28;20057;-69
2023/07/19 11:14:58;;;;;;;2.83;1.13;;;20.70;99.90;;;;;;4991480;28;20038;-69
2023/07/19 11:17:29;;;;;;;1.88;0.93;;;20.50;99.90;;;;;;4992216;28;20049;-69
2023/07/19 11:19:55;;;;;;;2.75;1.20;;;20.50;99.90;;;;;;4992100;28;20571;-69
2023/07/19 11:22:26;;;;;;;2.88;0.88;;;20.40;99.90;;;;;;4989093;28;20117;-69
2023/07/19 11:24:53;;;;;;;2.42;1.42;;;20.30;99.90;;;;;;4992127;28;20073;-69
2023/07/19 11:27:35;;;;;;;3.30;1.10;;;20.50;99.90;;;;;;4992149;28;20078;-69
2023/07/19 11:30:02;;;;;;;3.67;1.30;;;20.80;99.90;;;;;;4996339;28;20041;-68
2023/07/19 11:32:27;;;;;;;2.67;1.30;;;20.80;99.90;;;;;;4996158;28;20035;-68
2023/07/19 11:35:01;;;;;;;2.03;0.80;;;21.00;99.90;;;;;;4986737;28;20038;-68
2023/07/19 11:37:32;;;;;;;3.13;0.95;;;21.20;99.90;;;;;;4995811;28;20039;-68
2023/07/19 11:40:05;;;;;;;1.67;0.73;;;21.30;99.90;;;;;;4996049;28;20442;-69
2023/07/19 11:42:47;;;;;;;2.55;0.90;;;21.40;99.90;;;;;;4995964;28;20069;-69
2023/07/19 11:45:15;;;;;;;3.55;1.30;;;21.50;99.90;;;;;;4996097;28;20118;-69
2023/07/19 11:47:42;;;;;;;2.28;0.80;;;21.20;99.90;;;;;;4995671;28;20129;-69
2023/07/19 11:50:09;;;;;;;2.60;0.95;;;21.30;99.90;;;;;;4995974;28;20421;-69
2023/07/19 11:53:00;;;;;;;3.00;0.90;;;21.40;99.90;;;;;;4996086;28;20054;-69
2023/07/19 11:55:26;;;;;;;2.05;1.00;;;21.50;99.90;;;;;;4996037;28;20074;-69
2023/07/19 11:57:53;;;;;;;4.22;1.67;;;21.50;99.90;;;;;;4995595;28;20046;-69
2023/07/19 12:00:20;;;;;;;1.05;0.73;;;21.40;99.90;;;;;;4995650;28;20045;-68
2023/07/19 12:02:48;;;;;;;2.13;0.60;;;21.30;99.90;;;;;;4995499;28;20034;-69
2023/07/19 12:05:24;;;;;;;2.20;0.73;;;21.20;99.90;;;;;;4994417;28;20073;-69
2023/07/19 12:07:50;;;;;;;2.38;0.70;;;21.10;99.90;;;;;;4995486;28;20049;-69
2023/07/19 12:10:20;;;;;;;2.22;1.00;;;21.20;99.90;;;;;;4995634;28;20042;-68
2023/07/19 12:12:49;;;;;;;1.25;0.52;;;21.10;99.90;;;;;;4995380;28;20042;-68
2023/07/19 12:15:16;;;;;;;3.22;0.80;;;21.40;99.90;;;;;;4995733;28;20046;-68
2023/07/19 12:17:43;;;;;;;3.85;0.60;;;21.40;99.90;;;;;;4995178;28;20497;-69
2023/07/19 12:20:09;;;;;;;0.90;0.40;;;21.50;99.90;;;;;;4995230;28;20058;-69
2023/07/19 12:22:37;;;;;;;1.08;0.70;;;21.40;99.90;;;;;;4994685;28;20034;-69
2023/07/19 12:25:03;;;;;;;1.55;0.95;;;21.40;99.90;;;;;;4992872;28;20117;-69
2023/07/19 12:27:30;;;;;;;3.05;0.63;;;21.20;99.90;;;;;;4994443;28;20053;-69
2023/07/19 12:29:56;;;;;;;1.83;0.55;;;20.80;99.90;;;;;;4994095;28;20038;-69
2023/07/19 12:32:22;;;;;;;1.30;0.60;;;21.00;99.90;;;;;;4993972;28;20486;-69
2023/07/19 12:34:48;;;;;;;2.58;0.68;;;21.00;99.90;;;;;;4995066;28;20053;-69
2023/07/19 12:37:14;;;;;;;3.28;0.93;;;20.90;99.90;;;;;;4994983;28;20108;-69
2023/07/19 12:39:40;;;;;;;2.42;0.60;;;20.90;99.90;;;;;;4994525;28;20035;-69
2023/07/19 12:42:10;;;;;;;2.15;0.57;;;20.90;99.90;;;;;;4994746;28;20052;-69
2023/07/19 12:44:36;;;;;;;1.83;0.65;;;20.90;99.90;;;;;;4994828;28;20530;-69